Time;durP1;ratioP1;P1;durP2;ratioP2;P2;SDS_P1;SDS_P2;PMS_P1;PMS_P2;Temp;Humidity;BMP_temperature;BMP_pressure;BME280_temperature;BME280_humidity;BME280_pressure;Samples;Min_cycle;Max_cycle;Signal;HPM_P1;HPM_P2
2021/01/17 00:00:44;;;;;;;9.70;5.60;;;;;;;-4.24;85.70;101053.02;1667684;83;21261;-76
2021/01/17 00:03:10;;;;;;;9.15;5.35;;;;;;;-4.21;85.81;101053.57;1685594;83;21219;-76
2021/01/17 00:05:38;;;;;;;8.73;5.92;;;;;;;-4.17;85.79;101060.51;1676881;83;21213;-76
2021/01/17 00:08:10;;;;;;;10.30;6.20;;;;;;;-4.15;85.83;101061.02;1674954;83;21669;-76
2021/01/17 00:10:37;;;;;;;13.25;7.22;;;;;;;-4.14;85.70;101060.63;1692673;83;21190;-75
2021/01/17 00:13:04;;;;;;;15.40;7.58;;;;;;;-4.17;85.59;101065.56;1686693;83;21544;-75
2021/01/17 00:15:31;;;;;;;14.25;6.70;;;;;;;-4.19;85.66;101073.06;1688597;83;21215;-75
2021/01/17 00:17:58;;;;;;;17.05;9.10;;;;;;;-4.16;85.71;101078.66;1680478;83;21620;-75
2021/01/17 00:20:25;;;;;;;14.60;7.92;;;;;;;-4.17;85.62;101076.92;1692890;83;21348;-75
2021/01/17 00:22:55;;;;;;;18.42;9.50;;;;;;;-4.19;85.55;101072.19;1690190;83;21235;-75
2021/01/17 00:25:22;;;;;;;17.57;8.40;;;;;;;-4.22;85.43;101079.22;1661548;83;21506;-75
2021/01/17 00:27:53;;;;;;;17.48;8.48;;;;;;;-4.25;85.40;101078.19;1686469;83;21744;-75
2021/01/17 00:30:25;;;;;;;13.62;6.50;;;;;;;-4.29;85.47;101080.08;1674850;83;21219;-75
2021/01/17 00:32:57;;;;;;;17.50;9.48;;;;;;;-4.29;85.54;101079.69;1657292;83;21399;-75
2021/01/17 00:35:25;;;;;;;15.98;8.30;;;;;;;-4.36;85.30;101078.91;1678312;83;21217;-75
2021/01/17 00:38:01;;;;;;;16.17;8.48;;;;;;;-4.42;85.29;101078.59;1680580;83;21198;-75
2021/01/17 00:40:28;;;;;;;12.73;6.40;;;;;;;-4.42;85.41;101088.69;1691491;83;21248;-75
2021/01/17 00:42:56;;;;;;;19.45;9.25;;;;;;;-4.45;85.36;101079.69;1677401;83;21712;-75
2021/01/17 00:45:25;;;;;;;14.65;8.00;;;;;;;-4.47;85.34;101085.05;1681517;83;22233;-75
2021/01/17 00:47:51;;;;;;;20.55;8.95;;;;;;;-4.51;85.21;101094.13;1703947;83;21757;-75
2021/01/17 00:50:20;;;;;;;17.92;8.90;;;;;;;-4.57;85.22;101096.33;1680542;83;21231;-75
2021/01/17 00:52:54;;;;;;;15.68;8.63;;;;;;;-4.60;85.23;101096.56;1679245;83;21172;-75
2021/01/17 00:55:20;;;;;;;19.57;9.00;;;;;;;-4.66;85.14;101104.28;1669759;83;21248;-75
2021/01/17 00:57:46;;;;;;;18.42;8.88;;;;;;;-4.72;85.14;101104.38;1689940;83;26961;-75
2021/01/17 01:00:16;;;;;;;14.50;8.53;;;;;;;-4.76;85.12;101109.66;1681961;83;21213;-75
2021/01/17 01:02:43;;;;;;;14.87;8.25;;;;;;;-4.82;85.04;101111.85;1688581;83;21845;-75
2021/01/17 01:05:09;;;;;;;;;;;;;;;-4.87;85.03;101116.17;1681497;83;21680;-75
2021/01/17 01:07:36;;;;;;;19.98;9.45;;;;;;;-4.92;84.99;101115.06;1662662;83;20567;-76
2021/01/17 01:10:08;;;;;;;17.50;9.35;;;;;;;-4.99;85.00;101121.42;1693677;83;21658;-75
2021/01/17 01:12:36;;;;;;;17.10;8.58;;;;;;;-5.06;84.94;101120.22;1662374;84;21239;-75
2021/01/17 01:15:08;;;;;;;18.92;9.00;;;;;;;-5.12;84.93;101125.31;1679571;83;21210;-75
2021/01/17 01:17:35;;;;;;;19.82;8.73;;;;;;;-5.19;84.93;101125.77;1697098;83;21206;-75
2021/01/17 01:20:01;;;;;;;;;;;;;;;-5.25;84.99;101132.63;1692872;83;21219;-75
2021/01/17 01:22:27;;;;;;;19.60;8.55;;;;;;;-5.29;84.95;101126.06;1709916;83;21092;-75
2021/01/17 01:24:54;;;;;;;20.77;9.13;;;;;;;-5.33;84.93;101131.33;1683980;83;21209;-75
2021/01/17 01:27:20;;;;;;;24.45;10.05;;;;;;;-5.37;85.00;101126.91;1688145;83;22293;-75
2021/01/17 01:29:46;;;;;;;22.25;9.40;;;;;;;-5.42;84.96;101124.52;1697809;83;21173;-75
2021/01/17 01:32:13;;;;;;;17.48;10.10;;;;;;;-5.43;84.97;101127.81;1683742;83;21199;-75
2021/01/17 01:34:39;;;;;;;12.78;7.62;;;;;;;-5.47;84.96;101130.55;1680738;83;21201;-75
2021/01/17 01:37:07;;;;;;;12.82;7.75;;;;;;;-5.49;84.92;101135.03;1677396;83;21229;-75
2021/01/17 01:39:33;;;;;;;17.17;7.92;;;;;;;-5.56;84.85;101130.42;1681743;83;21510;-75
2021/01/17 01:42:07;;;;;;;17.62;8.30;;;;;;;-5.62;84.82;101129.69;1689887;83;21617;-75
2021/01/17 01:44:34;;;;;;;18.98;8.68;;;;;;;-5.62;85.00;101135.11;1693334;83;21548;-75
2021/01/17 01:47:01;;;;;;;;;;;;;;;-5.61;84.98;101137.72;1691753;83;22171;-75
2021/01/17 01:49:28;;;;;;;15.68;8.13;;;;;;;-5.67;84.79;101130.69;1691806;83;20604;-75
2021/01/17 01:51:56;;;;;;;14.60;7.53;;;;;;;-5.76;84.72;101139.00;1687224;83;21222;-75
2021/01/17 01:54:23;;;;;;;12.63;7.40;;;;;;;-5.83;84.69;101133.53;1682353;83;21220;-75
2021/01/17 01:56:53;;;;;;;15.70;8.63;;;;;;;-5.88;84.68;101137.03;1672650;83;21229;-75
2021/01/17 01:59:21;;;;;;;15.00;8.15;;;;;;;-5.94;84.71;101139.23;1671504;84;21683;-75
2021/01/17 02:01:49;;;;;;;19.52;8.53;;;;;;;-5.98;84.63;101140.22;1681515;84;21669;-75
2021/01/17 02:04:15;;;;;;;18.82;9.18;;;;;;;-6.02;84.75;101135.00;1669719;84;21170;-75
2021/01/17 02:06:47;;;;;;;13.70;8.05;;;;;;;-6.01;84.82;101138.39;1676950;84;21229;-76
2021/01/17 02:09:26;;;;;;;14.45;8.20;;;;;;;-6.02;84.81;101137.91;1676476;84;21831;-75
2021/01/17 02:12:19;;;;;;;9.80;6.40;;;;;;;-6.04;84.75;101140.34;1654527;85;21533;-75
2021/01/17 02:14:57;;;;;;;13.03;6.70;;;;;;;-6.08;84.69;101146.36;1672105;83;21630;-75
2021/01/17 02:17:27;;;;;;;10.80;7.20;;;;;;;-6.16;84.59;101145.04;1676694;84;21192;-75
2021/01/17 02:20:16;;;;;;;11.25;6.17;;;;;;;-6.26;84.49;101142.39;1669570;84;21236;-75
2021/01/17 02:23:06;;;;;;;14.78;7.25;;;;;;;-6.33;84.48;101147.84;1668777;84;21225;-74
2021/01/17 02:25:38;;;;;;;12.35;7.58;;;;;;;-6.35;84.65;101146.48;1664196;84;21232;-75
2021/01/17 02:28:11;;;;;;;10.50;6.28;;;;;;;-6.35;84.71;101144.36;1680269;84;21205;-75
2021/01/17 02:30:45;;;;;;;13.93;8.13;;;;;;;-6.37;84.57;101154.33;1655290;84;21197;-75
2021/01/17 02:33:20;;;;;;;14.33;7.58;;;;;;;-6.46;84.45;101156.69;1657879;84;21216;-75
2021/01/17 02:35:47;;;;;;;15.15;7.50;;;;;;;-6.53;84.48;101147.02;1670560;84;21216;-75
2021/01/17 02:39:11;;;;;;;14.98;7.25;;;;;;;-6.55;84.56;101154.48;1669334;84;21161;-75
2021/01/17 02:42:00;;;;;;;13.25;6.85;;;;;;;-6.55;84.61;101151.09;1678483;84;21200;-77
2021/01/17 02:44:31;;;;;;;13.60;7.03;;;;;;;-6.56;84.60;101148.97;1661132;84;21188;-77
2021/01/17 02:46:59;;;;;;;13.30;7.72;;;;;;;-6.62;84.52;101143.56;1671366;84;21607;-77
2021/01/17 02:49:25;;;;;;;14.20;6.83;;;;;;;-6.65;84.50;101150.92;1670982;83;21225;-78
2021/01/17 02:51:53;;;;;;;15.55;7.60;;;;;;;-6.72;84.39;101142.52;1669072;83;21666;-78
2021/01/17 02:54:33;;;;;;;11.08;7.05;;;;;;;-6.77;84.45;101146.03;1668455;84;21232;-78
2021/01/17 02:57:09;;;;;;;9.48;6.55;;;;;;;-6.81;84.43;101145.75;1673884;84;21239;-78
2021/01/17 02:59:57;;;;;;;16.60;7.77;;;;;;;-6.89;84.31;101155.72;1689920;84;21756;-78
2021/01/17 03:02:31;;;;;;;16.07;8.33;;;;;;;-6.95;84.39;101149.05;1686235;84;21188;-78
2021/01/17 03:05:06;;;;;;;16.35;8.35;;;;;;;-6.96;84.47;101153.59;1684911;84;21535;-78
2021/01/17 03:07:37;;;;;;;14.63;7.17;;;;;;;-6.98;84.46;101152.63;1683003;84;21208;-78
2021/01/17 03:10:09;;;;;;;13.53;7.10;;;;;;;-7.05;84.30;101150.12;1675864;84;21204;-78
2021/01/17 03:12:36;;;;;;;14.63;7.95;;;;;;;-7.09;84.27;101152.83;1683074;84;21192;-78
2021/01/17 03:15:05;;;;;;;14.23;8.08;;;;;;;-7.18;84.15;101157.27;1677645;84;21197;-78
2021/01/17 03:17:32;;;;;;;11.50;6.47;;;;;;;-7.28;84.08;101152.85;1676025;84;21858;-78
2021/01/17 03:19:58;;;;;;;14.05;7.17;;;;;;;-7.40;83.85;101161.34;1678473;84;21253;-78
2021/01/17 03:22:25;;;;;;;11.83;7.60;;;;;;;-7.51;83.90;101161.03;1673752;84;21205;-78
2021/01/17 03:24:51;;;;;;;19.80;7.80;;;;;;;-7.62;83.85;101155.70;1672683;84;21737;-78
2021/01/17 03:27:18;;;;;;;14.93;7.50;;;;;;;-7.72;83.87;101159.64;1683951;84;21219;-78
2021/01/17 03:29:43;;;;;;;;;;;;;;;-7.79;83.88;101169.66;1681522;84;21232;-78
2021/01/17 03:32:10;;;;;;;13.67;7.03;;;;;;;-7.84;83.94;101164.75;1675167;84;20480;-78
2021/01/17 03:34:36;;;;;;;13.05;7.15;;;;;;;-7.84;84.08;101168.91;1675489;84;21181;-78
2021/01/17 03:37:05;;;;;;;21.07;9.18;;;;;;;-7.85;84.08;101174.31;1682874;84;21783;-78
2021/01/17 03:39:32;;;;;;;12.55;6.92;;;;;;;-7.88;84.05;101175.36;1676406;84;21253;-78
2021/01/17 03:41:59;;;;;;;13.00;7.25;;;;;;;-7.94;84.01;101181.22;1675401;84;21205;-78
2021/01/17 03:44:25;;;;;;;13.60;6.97;;;;;;;-8.03;83.89;101187.75;1672226;84;21224;-78
2021/01/17 03:46:51;;;;;;;13.32;7.45;;;;;;;-8.09;83.89;101187.34;1673984;84;21208;-78
2021/01/17 03:49:17;;;;;;;17.77;7.72;;;;;;;-8.19;83.75;101184.98;1685065;84;21205;-78
2021/01/17 03:51:44;;;;;;;15.85;8.50;;;;;;;-8.27;83.79;101186.48;1692213;84;21209;-78
2021/01/17 03:54:10;;;;;;;15.25;7.65;;;;;;;-8.36;83.71;101179.27;1679359;84;21224;-78
2021/01/17 03:56:36;;;;;;;;;;;;;;;-8.41;83.88;101185.59;1654839;84;21180;-78
2021/01/17 03:59:02;;;;;;;15.90;7.47;;;;;;;-8.43;83.68;101183.37;1681090;83;23901;-78
2021/01/17 04:01:28;;;;;;;13.18;7.00;;;;;;;-8.55;83.75;101181.27;1680103;83;21227;-78
2021/01/17 04:03:58;;;;;;;14.90;7.72;;;;;;;-8.60;83.87;101189.73;1679518;83;21242;-78
2021/01/17 04:06:25;;;;;;;15.13;7.85;;;;;;;-8.62;83.94;101195.39;1688213;83;22496;-78
2021/01/17 04:08:51;;;;;;;14.18;7.03;;;;;;;-8.63;84.01;101192.02;1679796;83;21526;-78
2021/01/17 04:11:18;;;;;;;17.17;8.73;;;;;;;-8.64;83.97;101192.78;1670283;83;21188;-78
2021/01/17 04:13:44;;;;;;;14.28;7.55;;;;;;;-8.64;83.98;101200.69;1677836;83;21225;-78
2021/01/17 04:16:10;;;;;;;;;;;;;;;-8.74;83.76;101203.80;1688517;83;21197;-78
2021/01/17 04:18:36;;;;;;;11.77;6.30;;;;;;;-8.81;83.65;101212.03;1689531;83;21194;-78
2021/01/17 04:21:03;;;;;;;13.35;7.55;;;;;;;-8.90;83.70;101214.79;1678930;83;21242;-78
2021/01/17 04:23:29;;;;;;;15.18;6.67;;;;;;;-8.91;83.88;101213.43;1681177;83;21723;-78
2021/01/17 04:25:56;;;;;;;19.73;7.83;;;;;;;-8.89;83.99;101212.77;1675177;83;21263;-78
2021/01/17 04:28:22;;;;;;;11.70;6.60;;;;;;;-8.97;83.67;101211.36;1706890;83;21200;-78
2021/01/17 04:30:48;;;;;;;16.40;7.62;;;;;;;-9.08;83.54;101218.11;1686014;83;21223;-78
2021/01/17 04:33:18;;;;;;;;;;;;;;;-9.17;83.49;101217.83;1675764;83;21236;-78
2021/01/17 04:35:46;;;;;;;14.58;6.42;;;;;;;-9.24;83.48;101221.91;1685281;83;21093;-78
2021/01/17 04:38:12;;;;;;;11.97;6.25;;;;;;;-9.33;83.43;101222.48;1676222;83;21216;-78
2021/01/17 04:40:39;;;;;;;15.83;6.73;;;;;;;-9.40;83.51;101220.82;1680334;83;21179;-78
2021/01/17 04:43:31;;;;;;;15.15;6.75;;;;;;;-9.46;83.44;101220.75;1686942;83;21233;-78
2021/01/17 04:46:00;;;;;;;14.10;6.70;;;;;;;-9.52;83.52;101217.80;1669398;83;21238;-75
2021/01/17 04:48:28;;;;;;;17.60;7.75;;;;;;;-9.52;83.65;101216.55;1680439;83;21197;-75
2021/01/17 04:51:03;;;;;;;15.23;7.45;;;;;;;-9.56;83.57;101232.09;1688040;83;21685;-75
2021/01/17 04:53:33;;;;;;;22.60;8.30;;;;;;;-9.61;83.54;101229.25;1676366;83;21215;-75
2021/01/17 04:56:20;;;;;;;15.00;6.70;;;;;;;-9.67;83.50;101220.42;1674653;83;21246;-75
2021/01/17 04:59:13;;;;;;;10.37;5.77;;;;;;;-9.74;83.35;101218.72;1667188;83;21204;-75
2021/01/17 05:01:53;;;;;;;16.47;6.67;;;;;;;-9.90;83.12;101223.36;1669660;84;21909;-75
2021/01/17 05:04:55;;;;;;;12.50;5.77;;;;;;;-10.05;83.06;101221.83;1668992;84;21197;-75
2021/01/17 05:07:28;;;;;;;16.03;6.23;;;;;;;-10.13;83.13;101222.01;1630351;84;21214;-75
2021/01/17 05:10:08;;;;;;;14.27;6.30;;;;;;;-10.24;83.11;101227.48;1689108;84;21637;-75
2021/01/17 05:12:55;;;;;;;10.75;5.92;;;;;;;-10.28;83.24;101228.38;1670081;84;21212;-75
2021/01/17 05:15:23;;;;;;;11.20;5.60;;;;;;;-10.29;83.24;101231.62;1682070;84;21669;-74
2021/01/17 05:17:54;;;;;;;12.87;5.90;;;;;;;-10.36;83.13;101239.91;1674491;84;21220;-74
2021/01/17 05:20:22;;;;;;;11.87;6.70;;;;;;;-10.39;83.22;101237.17;1664036;84;21280;-76
2021/01/17 05:22:51;;;;;;;13.70;7.20;;;;;;;-10.42;83.19;101235.72;1670205;83;21221;-75
2021/01/17 05:25:20;;;;;;;8.73;5.33;;;;;;;-10.44;83.22;101240.98;1669348;84;21209;-75
2021/01/17 05:27:49;;;;;;;17.87;7.53;;;;;;;-10.52;82.98;101242.01;1668392;84;21232;-75
2021/01/17 05:30:16;;;;;;;10.37;5.37;;;;;;;-10.60;82.99;101249.66;1689213;84;21213;-75
2021/01/17 05:32:43;;;;;;;17.93;7.43;;;;;;;-10.68;82.97;101247.81;1688189;84;21226;-75
2021/01/17 05:35:10;;;;;;;11.10;6.20;;;;;;;-10.65;83.26;101248.05;1664546;84;21198;-75
2021/01/17 05:37:49;;;;;;;10.80;6.23;;;;;;;-10.67;83.08;101253.30;1687985;84;21201;-75
2021/01/17 05:40:16;;;;;;;17.30;7.63;;;;;;;-10.74;83.00;101251.08;1666976;84;21201;-75
2021/01/17 05:42:45;;;;;;;21.87;10.20;;;;;;;-10.79;83.07;101248.59;1680236;84;22294;-75
2021/01/17 05:45:19;;;;;;;31.53;13.37;;;;;;;-10.75;83.36;101249.34;1676602;84;21181;-75
2021/01/17 05:47:55;;;;;;;21.77;10.67;;;;;;;-10.68;83.39;101254.44;1676297;84;21267;-75
2021/01/17 05:50:22;;;;;;;21.05;10.13;;;;;;;-10.76;83.15;101258.45;1667635;84;21220;-74
2021/01/17 05:52:52;;;;;;;20.50;9.27;;;;;;;-10.76;83.25;101259.70;1672086;84;21208;-74
2021/01/17 05:55:21;;;;;;;20.40;8.70;;;;;;;-10.72;83.31;101260.81;1663868;83;21193;-74
2021/01/17 05:57:47;;;;;;;26.63;11.27;;;;;;;-10.78;83.06;101262.45;1655519;84;21225;-74
2021/01/17 06:00:14;;;;;;;;;;;;;;;-10.89;82.93;101266.10;1674684;84;21228;-74
2021/01/17 06:02:41;;;;;;;33.53;12.87;;;;;;;-10.94;83.05;101274.89;1664475;83;20296;-74
2021/01/17 06:05:10;;;;;;;25.83;11.10;;;;;;;-10.89;83.33;101277.34;1673058;84;21195;-74
2021/01/17 06:07:38;;;;;;;25.33;11.50;;;;;;;-10.81;83.48;101281.32;1680482;83;21188;-75
2021/01/17 06:10:07;;;;;;;21.33;8.70;;;;;;;-10.77;83.44;101282.06;1658060;84;21728;-75
2021/01/17 06:12:38;;;;;;;18.60;8.20;;;;;;;-10.75;83.44;101284.30;1682372;83;21208;-75
2021/01/17 06:15:12;;;;;;;17.37;7.83;;;;;;;-10.72;83.45;101291.66;1668433;84;21557;-74
2021/01/17 06:17:47;;;;;;;25.77;8.17;;;;;;;-10.68;83.46;101286.91;1687793;83;21239;-74
2021/01/17 06:20:24;;;;;;;19.17;8.13;;;;;;;-10.73;83.26;101297.79;1677262;84;21560;-74
2021/01/17 06:22:59;;;;;;;15.67;6.27;;;;;;;-10.71;83.24;101302.16;1668825;83;21236;-75
2021/01/17 06:25:30;;;;;;;16.10;6.85;;;;;;;-10.79;83.00;101305.67;1679499;84;21630;-76
2021/01/17 06:28:12;;;;;;;19.43;7.73;;;;;;;-10.86;82.95;101308.43;1679667;84;21211;-77
2021/01/17 06:30:39;;;;;;;9.73;5.67;;;;;;;-10.85;83.11;101312.67;1678106;83;21845;-75
2021/01/17 06:33:07;;;;;;;15.37;7.13;;;;;;;-10.85;82.99;101321.79;1675845;83;21635;-75
2021/01/17 06:35:39;;;;;;;18.60;7.07;;;;;;;-10.85;83.13;101325.16;1674604;84;21203;-75
2021/01/17 06:38:17;;;;;;;26.63;9.93;;;;;;;-10.81;83.17;101332.52;1670784;84;21252;-74
2021/01/17 06:40:46;;;;;;;32.13;11.23;;;;;;;-10.79;83.16;101334.77;1685565;84;21259;-74
2021/01/17 06:43:14;;;;;;;30.90;11.10;;;;;;;-10.80;83.11;101333.02;1686484;84;21195;-74
2021/01/17 06:45:45;;;;;;;17.53;7.87;;;;;;;-10.80;83.08;101340.14;1669494;84;21236;-74
2021/01/17 06:48:26;;;;;;;23.43;7.60;;;;;;;-10.78;83.02;101345.26;1653240;84;21221;-76
2021/01/17 06:50:53;;;;;;;22.77;10.63;;;;;;;-10.94;82.64;101344.43;1673417;84;21223;-76
2021/01/17 06:53:25;;;;;;;17.90;8.60;;;;;;;-10.99;82.72;101348.18;1694492;84;21201;-76
2021/01/17 06:56:19;;;;;;;16.80;8.10;;;;;;;-11.05;82.58;101348.93;1670347;84;21232;-76
2021/01/17 06:58:41;;;;;;;14.83;6.63;;;;;;;-11.15;82.57;101348.92;1650374;83;21199;-77
2021/01/17 07:01:09;;;;;;;15.97;6.70;;;;;;;-11.22;82.62;101347.92;1683891;83;21248;-77
2021/01/17 07:04:04;;;;;;;15.60;6.97;;;;;;;-11.19;82.91;101347.80;1687643;83;21252;-74
2021/01/17 07:07:03;;;;;;;16.77;6.77;;;;;;;-11.22;82.66;101351.30;1690279;82;21219;-75
2021/01/17 07:09:50;;;;;;;13.87;6.23;;;;;;;-11.30;82.57;101350.16;1688653;83;21182;-74
2021/01/17 07:12:58;;;;;;;12.10;5.90;;;;;;;-11.36;82.54;101360.52;1683536;83;21201;-74
2021/01/17 07:15:28;;;;;;;16.60;5.97;;;;;;;-11.43;82.51;101362.00;1682210;83;21759;-74
2021/01/17 07:18:01;;;;;;;16.87;7.47;;;;;;;-11.45;82.65;101363.53;1691758;83;21205;-75
2021/01/17 07:20:30;;;;;;;31.13;10.37;;;;;;;-11.50;82.58;101366.89;1684642;83;21202;-75
2021/01/17 07:22:58;;;;;;;25.87;9.67;;;;;;;-11.44;82.91;101369.89;1689966;83;21178;-75
2021/01/17 07:25:27;;;;;;;41.97;13.43;;;;;;;-11.39;82.87;101373.61;1676656;83;21223;-75
2021/01/17 07:28:20;;;;;;;36.13;11.10;;;;;;;-11.43;82.68;101376.59;1672738;83;21270;-75
2021/01/17 07:31:04;;;;;;;28.60;10.97;;;;;;;-11.36;82.86;101380.48;1700892;83;21409;-74
2021/01/17 07:33:36;;;;;;;26.67;10.17;;;;;;;-11.34;82.76;101381.48;1684238;83;21211;-74
2021/01/17 07:36:06;;;;;;;26.00;9.80;;;;;;;-11.33;82.72;101388.22;1680705;83;21214;-74
2021/01/17 07:38:36;;;;;;;21.37;8.90;;;;;;;-11.27;82.81;101392.84;1681769;83;21270;-74
2021/01/17 07:41:11;;;;;;;21.50;9.90;;;;;;;-11.20;82.91;101394.73;1689194;83;21629;-74
2021/01/17 07:43:44;;;;;;;23.00;8.30;;;;;;;-11.10;82.92;101395.11;1682029;83;21012;-74
2021/01/17 07:46:16;;;;;;;18.80;7.57;;;;;;;-11.09;82.68;101391.50;1673519;83;21177;-74
2021/01/17 07:48:45;;;;;;;18.97;7.70;;;;;;;-11.11;82.59;101397.98;1686401;83;21197;-74
2021/01/17 07:51:13;;;;;;;18.67;7.63;;;;;;;-11.09;82.67;101401.48;1691431;83;21157;-74
2021/01/17 07:54:11;;;;;;;18.10;6.90;;;;;;;-11.09;82.59;101401.48;1684514;83;21143;-74
2021/01/17 07:56:38;;;;;;;21.23;8.97;;;;;;;-11.01;82.78;101402.11;1685448;83;22267;-74
2021/01/17 07:59:07;;;;;;;19.27;8.03;;;;;;;-10.95;82.74;101406.36;1683867;83;21217;-74
2021/01/17 08:01:39;;;;;;;23.73;8.63;;;;;;;-10.97;82.53;101410.36;1678630;83;21202;-74
2021/01/17 08:04:12;;;;;;;35.27;11.67;;;;;;;-10.95;82.66;101415.10;1682111;83;21242;-74
2021/01/17 08:06:47;;;;;;;31.07;11.77;;;;;;;-10.89;82.74;101415.57;1679902;83;21186;-75
2021/01/17 08:09:19;;;;;;;24.35;9.15;;;;;;;-10.84;82.74;101416.82;1677670;83;21238;-74
2021/01/17 08:11:57;;;;;;;19.67;8.20;;;;;;;-10.86;82.49;101422.06;1682587;83;21675;-75
2021/01/17 08:14:36;;;;;;;23.70;8.90;;;;;;;-10.86;82.55;101418.32;1684037;83;21748;-74
2021/01/17 08:17:18;;;;;;;23.93;9.97;;;;;;;-10.86;82.47;101424.56;1687683;83;21186;-77
2021/01/17 08:20:00;;;;;;;20.30;8.60;;;;;;;-10.85;82.50;101421.32;1680278;83;21229;-72
2021/01/17 08:22:31;;;;;;;19.27;7.67;;;;;;;-10.82;82.49;101426.94;1679060;83;21171;-72
2021/01/17 08:25:04;;;;;;;15.93;7.93;;;;;;;-10.81;82.36;101423.31;1677079;83;21663;-72
2021/01/17 08:27:38;;;;;;;15.20;7.70;;;;;;;-10.84;82.31;101425.94;1690997;83;21209;-74
2021/01/17 08:30:15;;;;;;;20.53;9.27;;;;;;;-10.84;82.30;101425.94;1689899;83;21216;-72
2021/01/17 08:32:53;;;;;;;18.90;7.87;;;;;;;-10.87;82.32;101425.69;1686195;83;21202;-73
2021/01/17 08:35:25;;;;;;;23.50;9.60;;;;;;;-10.90;82.35;101442.55;1673690;83;21841;-73
2021/01/17 08:37:55;;;;;;;20.03;8.93;;;;;;;-10.89;82.60;101444.30;1679929;83;21260;-73
2021/01/17 08:40:32;;;;;;;18.20;7.53;;;;;;;-10.81;82.70;101447.42;1687972;83;21224;-73
2021/01/17 08:43:06;;;;;;;25.90;9.67;;;;;;;-10.77;82.65;101456.55;1678603;83;21197;-73
2021/01/17 08:45:43;;;;;;;22.30;10.37;;;;;;;-10.79;82.50;101462.16;1675306;83;21655;-73
2021/01/17 08:48:20;;;;;;;17.10;9.07;;;;;;;-10.80;82.47;101456.29;1691204;83;21236;-73
2021/01/17 08:50:49;;;;;;;22.37;9.43;;;;;;;-10.78;82.54;101458.54;1690413;83;21524;-73
2021/01/17 08:53:30;;;;;;;20.63;7.97;;;;;;;-10.79;82.42;101459.66;1687931;83;21142;-73
2021/01/17 08:56:01;;;;;;;17.10;8.30;;;;;;;-10.78;82.51;101456.04;1674648;83;21511;-73
2021/01/17 08:58:35;;;;;;;28.93;10.80;;;;;;;-10.80;82.41;101462.53;1678737;83;21253;-73
2021/01/17 09:01:07;;;;;;;20.57;8.83;;;;;;;-10.79;82.45;101464.66;1672954;83;21987;-73
2021/01/17 09:03:47;;;;;;;22.17;10.23;;;;;;;-10.78;82.46;101458.91;1672479;84;21236;-73
2021/01/17 09:06:19;;;;;;;18.37;8.07;;;;;;;-10.79;82.43;101465.91;1671785;84;21206;-73
2021/01/17 09:08:57;;;;;;;24.97;10.00;;;;;;;-10.81;82.37;101472.02;1668362;84;21666;-73
2021/01/17 09:11:37;;;;;;;21.70;9.10;;;;;;;-10.82;82.43;101471.90;1665787;84;21212;-73
2021/01/17 09:14:16;;;;;;;20.00;8.70;;;;;;;-10.80;82.40;101482.52;1663316;84;21958;-73
2021/01/17 09:16:49;;;;;;;19.17;8.43;;;;;;;-10.79;82.39;101480.89;1674209;84;21657;-73
2021/01/17 09:19:16;;;;;;;25.50;11.87;;;;;;;-10.75;82.50;101482.52;1672090;83;21212;-73
2021/01/17 09:21:43;;;;;;;25.97;13.10;;;;;;;-10.69;82.64;101488.40;1671301;84;21204;-73
2021/01/17 09:24:17;;;;;;;25.53;10.83;;;;;;;-10.60;82.65;101491.66;1667877;84;21727;-73
2021/01/17 09:26:58;;;;;;;33.43;13.10;;;;;;;-10.52;82.63;101490.66;1666462;84;21633;-73
2021/01/17 09:29:37;;;;;;;27.53;10.40;;;;;;;-10.47;82.54;101491.91;1669787;83;21241;-73
2021/01/17 09:32:13;;;;;;;19.27;9.50;;;;;;;-10.43;82.58;101495.16;1653259;84;482049;-73
2021/01/17 09:34:48;;;;;;;27.47;10.27;;;;;;;-10.43;82.44;101497.66;1660730;83;21243;-73
2021/01/17 09:37:16;;;;;;;21.70;10.43;;;;;;;-10.38;82.50;101496.75;1691438;83;21175;-73
2021/01/17 09:39:46;;;;;;;27.17;11.47;;;;;;;-10.34;82.50;101496.62;1696754;83;21349;-73
2021/01/17 09:42:15;;;;;;;28.63;11.33;;;;;;;-10.27;82.61;101504.73;1699516;83;21247;-74
2021/01/17 09:44:45;;;;;;;21.73;9.83;;;;;;;-10.25;82.49;101496.11;1688033;83;21235;-73
2021/01/17 09:47:17;;;;;;;29.97;12.83;;;;;;;-10.23;82.48;101495.48;1696241;83;21550;-73
2021/01/17 09:49:44;;;;;;;29.27;11.30;;;;;;;-10.17;82.53;101493.82;1683619;83;21192;-73
2021/01/17 09:52:22;;;;;;;23.03;10.67;;;;;;;-10.14;82.50;101489.94;1692570;83;21256;-73
2021/01/17 09:54:52;;;;;;;27.97;12.53;;;;;;;-10.08;82.58;101492.06;1694298;83;21214;-73
2021/01/17 09:57:25;;;;;;;26.57;11.90;;;;;;;-10.04;82.56;101488.67;1691972;83;21207;-73
2021/01/17 09:59:54;;;;;;;36.43;14.27;;;;;;;-10.00;82.43;101487.67;1691715;83;21187;-73
2021/01/17 10:02:23;;;;;;;33.30;13.20;;;;;;;-9.99;82.42;101490.67;1682148;83;21529;-74
2021/01/17 10:04:50;;;;;;;37.60;14.17;;;;;;;-9.95;82.44;101487.66;1694626;83;21908;-73
2021/01/17 10:07:22;;;;;;;43.23;17.30;;;;;;;-9.93;82.39;101489.91;1695816;83;21635;-74
2021/01/17 10:09:50;;;;;;;38.63;16.37;;;;;;;-9.97;82.25;101493.79;1684119;83;21203;-73
2021/01/17 10:12:26;;;;;;;43.17;16.97;;;;;;;-9.95;82.38;101496.41;1692460;83;21223;-73
2021/01/17 10:14:53;;;;;;;39.27;15.35;;;;;;;-9.92;82.39;101492.91;1694493;83;21239;-74
2021/01/17 10:17:20;;;;;;;35.17;14.47;;;;;;;-9.90;82.40;101490.15;1683773;83;21249;-73
2021/01/17 10:19:47;;;;;;;38.37;15.07;;;;;;;-9.86;82.46;101489.61;1698656;83;21498;-73
2021/01/17 10:22:17;;;;;;;42.17;16.67;;;;;;;-9.81;82.45;101487.09;1690448;83;21217;-73
2021/01/17 10:24:43;;;;;;;38.17;16.77;;;;;;;-9.79;82.44;101487.71;1697110;83;21283;-73
2021/01/17 10:27:11;;;;;;;46.77;18.33;;;;;;;-9.79;82.35;101491.84;1685889;83;21215;-73
2021/01/17 10:29:41;;;;;;;46.90;18.57;;;;;;;-9.76;82.37;101492.08;1696581;83;21217;-73
2021/01/17 10:32:13;;;;;;;37.17;16.07;;;;;;;-9.72;82.42;101491.19;1686127;83;21783;-73
2021/01/17 10:34:45;;;;;;;36.10;16.23;;;;;;;-9.65;82.54;101495.43;1680677;83;22339;-73
2021/01/17 10:37:16;;;;;;;41.57;15.50;;;;;;;-9.58;82.51;101498.53;1686870;84;21234;-73
2021/01/17 10:39:42;;;;;;;34.08;13.80;;;;;;;-9.51;82.61;101499.51;1692674;83;21679;-73
2021/01/17 10:42:26;;;;;;;36.40;15.23;;;;;;;-9.42;82.55;101492.72;1695460;84;21195;-73
2021/01/17 10:45:07;;;;;;;27.50;12.03;;;;;;;-9.41;82.35;101500.72;1686715;83;21246;-73
2021/01/17 10:48:03;;;;;;;33.00;13.78;;;;;;;-9.38;82.44;101498.45;1695475;83;21238;-73
2021/01/17 10:50:43;;;;;;;32.27;13.90;;;;;;;-9.29;82.60;101503.27;1698700;83;21214;-73
2021/01/17 10:53:33;;;;;;;32.00;13.50;;;;;;;-9.19;82.59;101503.22;1698317;83;21215;-73
2021/01/17 10:56:00;;;;;;;40.05;13.83;;;;;;;-9.09;82.63;101508.55;1675031;83;21489;-73
2021/01/17 10:58:34;;;;;;;38.50;14.17;;;;;;;-9.00;82.65;101497.98;1696762;83;21240;-73
2021/01/17 11:01:01;;;;;;;33.87;14.00;;;;;;;-8.93;82.61;101497.69;1692176;83;21247;-73
2021/01/17 11:03:41;;;;;;;29.82;11.73;;;;;;;-8.85;82.57;101504.16;1696494;83;21778;-73
2021/01/17 11:06:16;;;;;;;35.83;12.70;;;;;;;-8.80;82.63;101508.23;1694384;83;21202;-74
2021/01/17 11:08:54;;;;;;;28.65;12.10;;;;;;;-8.73;82.67;101507.55;1690147;83;21432;-73
2021/01/17 11:11:23;;;;;;;31.87;13.38;;;;;;;-8.64;82.64;101511.13;1683663;83;21222;-73
2021/01/17 11:14:01;;;;;;;36.33;15.30;;;;;;;-8.63;82.47;101506.98;1691763;84;21251;-73
2021/01/17 11:16:51;;;;;;;31.30;13.78;;;;;;;-8.59;82.47;101508.59;1690438;83;22315;-73
2021/01/17 11:19:17;;;;;;;38.53;15.75;;;;;;;-8.52;82.57;101502.39;1692895;83;21214;-73
2021/01/17 11:21:47;;;;;;;29.42;14.00;;;;;;;-8.45;82.59;101500.45;1696605;83;21235;-73
2021/01/17 11:24:13;;;;;;;26.57;11.88;;;;;;;-8.41;82.48;101504.06;1681671;83;21647;-73
2021/01/17 11:26:40;;;;;;;42.40;16.90;;;;;;;-8.42;82.39;101492.28;1698385;83;21189;-73
2021/01/17 11:29:14;;;;;;;37.93;15.45;;;;;;;-8.41;82.39;101497.41;1695348;83;21255;-73
2021/01/17 11:31:45;;;;;;;41.75;17.80;;;;;;;-8.43;82.35;101502.70;1690715;83;21289;-73
2021/01/17 11:34:14;;;;;;;39.35;15.28;;;;;;;-8.42;82.43;101508.20;1697374;83;22199;-73
2021/01/17 11:36:41;;;;;;;35.10;15.70;;;;;;;-8.37;82.35;101504.78;1686857;83;21242;-73